Irving, TX

2:18 AM CST on February 06, 2016 (GMT -0600)
Hackberry Creek | | Change Station
CLOSE
Current Station
Personal Weather Station
Location: Irving, TX
Elevation: 507 ft
Nearby Weather Stations
Active Advisory: Flood Warning

Elev 507 ft 32.91 °N, 96.98 °W | Updated 17 seconds ago

Overcast
Overcast
45.3 °F
Feels Like 44 °F
N
3.7
Wind Variable Wind from South
Gusts 7.8 mph

Today
High -- | Low -- °F
--% Chance of Precip.
Yesterday
High -- | Low -- °F
Precip. -- in
Pressure 30.22 in
Visibility 10.0 miles
Clouds Few 5000 ft
Mostly Cloudy 14000 ft
Overcast 25000 ft
Windchill 44 °F
Dew Point 34 °F
Humidity 65%
Rainfall 0.00 in
Snow Depth Not available.
7:19 AM 6:04 PM
Waning Crescent, 7% visible
METAR KDFW 060753Z 14008KT 10SM FEW050 BKN140 OVC250 07/M02 A3022 RMK AO2 RAE0656 SLP231 P0000 T00671022
Pressure 30.22 in
Visibility 10.0 miles
Clouds Few 5000 ft
Mostly Cloudy 14000 ft
Overcast 25000 ft
Windchill 44 °F
Dew Point 34 °F
Humidity 65%
Rainfall 0.00 in
Snow Depth Not available.
7:19 AM 6:04 PM
Waning Crescent, 7% visible
METAR KDFW 060753Z 14008KT 10SM FEW050 BKN140 OVC250 07/M02 A3022 RMK AO2 RAE0656 SLP231 P0000 T00671022

10-Day Weather Forecast

Almanac

Astronomy

Feb. 06, 2016 Rise Set
Actual Time
Civil Twilight
Nautical Twilight
Astronomical Twilight
Moon
Length of Visible Light
Length of Day
Tomorrow will be .
, % of the Moon is Illuminated

Today's Extremes

State Highs State Lows

Community

WunderPhotos

Upload Photos

1,890,933 photos uploaded!

WunderBlog® & News

Nearby

Air Quality

  Air Quality AQ Index Pollutant
Not available.

Snow Depth

Station Depth Elevation

Earthquake Activity

City Distance Mag. Time & Date
Minimum magnitude displayed is 2.5.

Coastal Water Temperatures

Place Temperature

Stations

Nearby Weather Stations

Station Location Temp. Windchill Dew Point Humidity Wind Precip. Elev Updated Type
                   

Watches & Warnings

Flood Warning
Issued: 6:56 PM CST Feb. 5, 2016 – National Weather Service

The Flood Warning continues for
the Elm Fork Trinity River near Carrollton.
* At 0615 PM Friday the stage was 8.32 feet.
* Flood stage is 8 feet.
* Minor flooding is occurring and minor flooding is forecast.
* Forecast... the river will remain near 8.4 feet for the next
several days.


Lat... Lon 3300 9700 3287 9699 3287 9687 3300 9688